createdAt,value
2023-01-11T00:01:57.493Z,5.70
2023-01-11T00:04:30.720Z,5.13
2023-01-11T00:07:00.171Z,6.38
2023-01-11T00:09:44.875Z,5.10
2023-01-11T00:12:14.383Z,5.60
2023-01-11T00:14:44.611Z,10.48
2023-01-11T00:17:12.760Z,2.72
2023-01-11T00:19:40.783Z,2.25
2023-01-11T00:22:09.289Z,6.78
2023-01-11T00:24:37.348Z,3.75
2023-01-11T00:27:07.038Z,3.40
2023-01-11T00:29:35.351Z,2.72
2023-01-11T00:32:03.660Z,3.80
2023-01-11T00:34:32.382Z,5.22
2023-01-11T00:37:00.641Z,6.13
2023-01-11T00:39:28.942Z,2.97
2023-01-11T00:42:14.553Z,3.40
2023-01-11T00:45:01.442Z,3.88
2023-01-11T00:47:43.393Z,3.35
2023-01-11T00:50:15.333Z,5.18
2023-01-11T00:52:43.992Z,2.38
2023-01-11T00:55:12.770Z,2.88
2023-01-11T00:57:40.938Z,6.55
2023-01-11T01:00:12.289Z,8.68
2023-01-11T01:02:41.210Z,6.85
2023-01-11T01:05:10.187Z,7.55
2023-01-11T01:07:38.668Z,6.28
2023-01-11T01:10:11.824Z,4.00
2023-01-11T01:12:57.920Z,6.60
2023-01-11T01:15:28.232Z,8.77
2023-01-11T01:17:57.167Z,3.50
2023-01-11T01:20:26.806Z,4.60
2023-01-11T01:22:55.065Z,5.28
2023-01-11T01:25:25.173Z,2.63
2023-01-11T01:27:53.174Z,8.82
2023-01-11T01:30:21.423Z,6.03
2023-01-11T01:32:50.978Z,3.25
2023-01-11T01:35:19.123Z,6.35
2023-01-11T01:37:47.628Z,3.65
2023-01-11T01:40:16.292Z,4.05
2023-01-11T01:42:44.482Z,2.05
2023-01-11T01:45:23.782Z,2.63
2023-01-11T01:47:58.160Z,2.72
2023-01-11T01:50:31.966Z,4.93
2023-01-11T01:53:04.349Z,5.10
2023-01-11T01:55:36.974Z,7.00
2023-01-11T01:58:08.979Z,2.45
2023-01-11T02:00:42.334Z,7.20
2023-01-11T02:03:17.635Z,6.03
2023-01-11T02:05:46.476Z,2.92
2023-01-11T02:08:27.469Z,7.97
2023-01-11T02:10:57.701Z,3.45
2023-01-11T02:13:26.859Z,2.38
2023-01-11T02:16:08.578Z,3.67
2023-01-11T02:18:39.315Z,5.75
2023-01-11T02:21:20.081Z,6.03
2023-01-11T02:24:11.657Z,6.75
2023-01-11T02:27:16.442Z,1.92
2023-01-11T02:29:58.688Z,4.63
2023-01-11T02:32:32.852Z,4.40
2023-01-11T02:35:12.569Z,3.22
2023-01-11T02:37:51.118Z,2.63
2023-01-11T02:40:26.776Z,2.85
2023-01-11T02:43:19.167Z,3.88
2023-01-11T02:45:53.571Z,4.20
2023-01-11T02:48:29.665Z,4.70
2023-01-11T02:51:04.931Z,2.20
2023-01-11T02:53:40.006Z,4.50
2023-01-11T02:56:11.929Z,1.73
2023-01-11T02:58:44.794Z,2.72
2023-01-11T03:01:14.793Z,3.08
2023-01-11T03:03:43.001Z,3.58
2023-01-11T03:06:16.501Z,1.95
2023-01-11T03:09:06.178Z,2.22
2023-01-11T03:12:06.345Z,3.13
2023-01-11T03:14:42.871Z,4.55
2023-01-11T03:17:24.890Z,2.33
2023-01-11T03:19:57.251Z,5.78
2023-01-11T03:22:32.773Z,2.83
2023-01-11T03:25:10.143Z,2.70
2023-01-11T03:27:48.226Z,3.60
2023-01-11T03:30:23.350Z,4.28
2023-01-11T03:32:59.891Z,2.42
2023-01-11T03:35:31.490Z,3.67
2023-01-11T03:38:04.243Z,4.03
2023-01-11T03:40:36.100Z,5.60
2023-01-11T03:43:14.123Z,3.47
2023-01-11T03:45:52.622Z,4.55
2023-01-11T03:48:26.912Z,1.95
2023-01-11T03:50:57.575Z,2.88
2023-01-11T03:53:28.785Z,2.40
2023-01-11T03:55:59.125Z,2.28
2023-01-11T03:58:29.902Z,6.88
2023-01-11T04:00:59.568Z,4.88
2023-01-11T04:03:29.498Z,4.97
2023-01-11T04:06:01.036Z,4.25
2023-01-11T04:08:29.384Z,3.40
2023-01-11T04:10:57.709Z,3.50
2023-01-11T04:13:26.051Z,3.60
2023-01-11T04:15:54.688Z,3.65
2023-01-11T04:18:22.722Z,4.32
2023-01-11T04:20:52.468Z,2.42
2023-01-11T04:23:20.720Z,4.25
2023-01-11T04:25:51.603Z,3.67
2023-01-11T04:28:19.567Z,7.03
2023-01-11T04:30:47.747Z,2.08
2023-01-11T04:33:15.811Z,3.75
2023-01-11T04:35:44.815Z,2.70
2023-01-11T04:38:14.410Z,2.00
2023-01-11T04:40:43.269Z,3.97
2023-01-11T04:43:10.648Z,2.00
2023-01-11T04:45:38.953Z,2.55
2023-01-11T04:48:07.846Z,5.20
2023-01-11T04:50:36.240Z,2.42
2023-01-11T04:53:04.683Z,7.03
2023-01-11T04:55:34.409Z,1.13
2023-01-11T04:58:02.675Z,1.52
2023-01-11T05:00:30.963Z,1.60
2023-01-11T05:03:00.393Z,2.80
2023-01-11T05:05:29.556Z,2.67
2023-01-11T05:07:57.964Z,1.23
2023-01-11T05:10:26.471Z,2.83
2023-01-11T05:12:56.253Z,1.63
2023-01-11T05:15:24.418Z,3.75
2023-01-11T05:17:52.563Z,4.75
2023-01-11T05:20:20.648Z,2.70
2023-01-11T05:22:49.627Z,4.95
2023-01-11T05:25:18.069Z,1.90
2023-01-11T05:27:46.382Z,2.85
2023-01-11T05:30:16.335Z,3.65
2023-01-11T05:32:44.518Z,2.53
2023-01-11T05:35:12.651Z,2.83
2023-01-11T05:37:41.471Z,3.22
2023-01-11T05:40:11.470Z,1.77
2023-01-11T05:42:39.669Z,2.08
2023-01-11T05:45:26.755Z,3.47
2023-01-11T05:47:56.978Z,3.70
2023-01-11T05:50:25.603Z,2.55
2023-01-11T05:52:54.155Z,2.70
2023-01-11T05:55:22.457Z,3.35
2023-01-11T05:57:51.520Z,4.10
2023-01-11T06:00:25.068Z,2.58
2023-01-11T06:02:53.552Z,1.58
2023-01-11T06:05:23.210Z,3.95
2023-01-11T06:07:52.561Z,4.55
2023-01-11T06:10:20.713Z,1.88
2023-01-11T06:13:13.300Z,3.63
2023-01-11T06:15:44.353Z,3.33
2023-01-11T06:18:12.324Z,1.10
2023-01-11T06:20:41.872Z,2.17
2023-01-11T06:23:10.249Z,1.73
2023-01-11T06:25:38.315Z,2.60
2023-01-11T06:28:06.480Z,3.60
2023-01-11T06:30:34.418Z,4.30
2023-01-11T06:33:05.795Z,1.35
2023-01-11T06:35:38.104Z,1.80
2023-01-11T06:38:08.951Z,2.83
2023-01-11T06:40:37.299Z,4.28
2023-01-11T06:43:05.264Z,1.55
2023-01-11T06:45:33.508Z,1.83
2023-01-11T06:48:01.813Z,2.70
2023-01-11T06:50:29.768Z,4.03
2023-01-11T06:52:59.150Z,7.05
2023-01-11T06:55:30.017Z,2.83
2023-01-11T06:57:58.410Z,2.45
2023-01-11T07:00:26.447Z,4.03
2023-01-11T07:02:54.430Z,2.42
2023-01-11T07:05:22.536Z,5.10
2023-01-11T07:07:50.581Z,2.92
2023-01-11T07:10:18.560Z,1.33
2023-01-11T07:12:47.815Z,0.68
2023-01-11T07:15:15.722Z,2.88
2023-01-11T07:17:43.593Z,2.40
2023-01-11T07:20:16.111Z,1.92
2023-01-11T07:25:12.096Z,6.72
2023-01-11T07:27:42.698Z,1.90
2023-01-11T07:30:13.251Z,1.63
2023-01-11T07:32:44.733Z,2.17
2023-01-11T07:35:12.601Z,2.15
2023-01-11T07:37:41.497Z,3.22
2023-01-11T07:40:11.207Z,3.50
2023-01-11T07:42:56.822Z,2.63
2023-01-11T07:45:31.563Z,2.33
2023-01-11T07:48:11.060Z,1.98
2023-01-11T07:50:44.996Z,1.60
2023-01-11T07:53:15.470Z,1.30
2023-01-11T07:55:43.867Z,1.08
2023-01-11T07:58:13.726Z,3.42
2023-01-11T08:00:43.450Z,2.88
2023-01-11T08:03:11.792Z,3.13
2023-01-11T08:05:40.571Z,3.55
2023-01-11T08:08:12.048Z,0.80
2023-01-11T08:10:42.682Z,4.75
2023-01-11T08:13:31.072Z,1.05
2023-01-11T08:16:04.396Z,1.75
2023-01-11T08:18:33.126Z,1.70
2023-01-11T08:21:01.658Z,2.63
2023-01-11T08:23:31.655Z,3.42
2023-01-11T08:26:00.361Z,2.00
2023-01-11T08:28:30.618Z,1.25
2023-01-11T08:31:03.400Z,3.10
2023-01-11T08:33:35.910Z,1.60
2023-01-11T08:36:06.264Z,2.38
2023-01-11T08:38:34.299Z,1.20
2023-01-11T08:41:02.484Z,1.98
2023-01-11T08:43:31.573Z,1.08
2023-01-11T08:46:00.850Z,6.00
2023-01-11T08:48:28.727Z,1.70
2023-01-11T08:50:58.639Z,2.55
2023-01-11T08:53:26.965Z,1.30
2023-01-11T08:55:55.177Z,1.50
2023-01-11T08:58:26.495Z,1.02
2023-01-11T09:00:54.915Z,0.98
2023-01-11T09:03:24.583Z,1.60
2023-01-11T09:05:53.944Z,3.28
2023-01-11T09:08:21.862Z,0.90
2023-01-11T09:10:49.742Z,3.75
2023-01-11T09:13:17.788Z,1.83
2023-01-11T09:15:46.748Z,1.20
2023-01-11T09:18:16.062Z,2.28
2023-01-11T09:20:45.382Z,2.63
2023-01-11T09:23:13.268Z,2.97
2023-01-11T09:25:41.218Z,2.40
2023-01-11T09:28:09.287Z,4.50
2023-01-11T09:30:39.114Z,2.47
2023-01-11T09:33:11.749Z,3.45
2023-01-11T09:35:42.573Z,3.88
2023-01-11T09:38:11.892Z,1.90
2023-01-11T09:40:50.227Z,1.42
2023-01-11T09:43:20.382Z,0.55
2023-01-11T09:45:51.930Z,1.73
2023-01-11T09:48:28.839Z,1.35
2023-01-11T09:51:07.329Z,1.63
2023-01-11T09:53:42.878Z,1.15
2023-01-11T09:56:17.073Z,1.77
2023-01-11T09:59:00.778Z,1.67
2023-01-11T10:01:45.609Z,0.93
2023-01-11T10:04:36.677Z,2.78
2023-01-11T10:07:24.616Z,1.40
2023-01-11T10:18:40.364Z,1.70
2023-01-11T10:19:31.655Z,1.30
2023-01-11T10:22:00.389Z,2.20
2023-01-11T10:24:33.586Z,2.83
2023-01-11T10:27:05.912Z,0.98
2023-01-11T10:29:49.745Z,0.88
2023-01-11T10:32:34.639Z,2.00
2023-01-11T10:35:29.949Z,2.17
2023-01-11T10:38:20.255Z,3.97
2023-01-11T10:41:08.303Z,4.32
2023-01-11T10:43:43.207Z,2.25
2023-01-11T10:46:16.531Z,3.20
2023-01-11T10:48:45.618Z,2.50
2023-01-11T10:51:24.774Z,5.38
2023-01-11T10:54:01.681Z,1.92
2023-01-11T10:57:02.351Z,1.88
2023-01-11T10:59:52.415Z,2.45
2023-01-11T11:02:38.589Z,4.18
2023-01-11T11:05:20.428Z,1.75
2023-01-11T11:07:55.525Z,4.50
2023-01-11T11:10:30.724Z,1.85
2023-01-11T11:13:23.468Z,1.52
2023-01-11T11:16:02.165Z,3.00
2023-01-11T11:18:30.191Z,4.85
2023-01-11T11:21:05.103Z,1.52
2023-01-11T11:23:34.117Z,1.05
2023-01-11T11:26:05.493Z,4.15
2023-01-11T11:28:34.409Z,5.55
2023-01-11T11:31:07.088Z,3.53
2023-01-11T11:33:37.031Z,2.72
2023-01-11T11:36:07.898Z,2.75
2023-01-11T11:38:38.114Z,5.10
2023-01-11T11:41:08.474Z,2.45
2023-01-11T11:43:38.010Z,3.13
2023-01-11T11:46:28.411Z,2.28
2023-01-11T11:49:13.347Z,2.45
2023-01-11T11:51:43.183Z,2.45
2023-01-11T11:54:20.237Z,2.10
2023-01-11T11:56:49.342Z,5.13
2023-01-11T11:59:20.929Z,1.17
2023-01-11T12:01:59.139Z,1.52
2023-01-11T12:04:38.966Z,1.83
2023-01-11T12:07:09.863Z,1.75
2023-01-11T12:09:45.492Z,1.20
2023-01-11T12:12:18.257Z,1.95
2023-01-11T12:15:09.048Z,5.38
2023-01-11T12:17:38.613Z,2.15
2023-01-11T12:20:34.392Z,2.13
2023-01-11T12:23:18.580Z,1.98
2023-01-11T12:26:15.830Z,1.60
2023-01-11T12:29:15.259Z,2.58
2023-01-11T12:32:05.955Z,4.10
2023-01-11T12:35:05.202Z,2.35
2023-01-11T12:37:54.921Z,1.45
2023-01-11T12:40:33.442Z,3.17
2023-01-11T12:43:28.521Z,3.47
2023-01-11T12:46:06.131Z,1.60
2023-01-11T12:48:46.941Z,2.58
2023-01-11T12:51:28.080Z,1.35
2023-01-11T12:54:06.349Z,2.38
2023-01-11T12:56:59.555Z,2.30
2023-01-11T12:59:51.810Z,1.45
2023-01-11T13:02:37.923Z,1.85
2023-01-11T13:05:19.915Z,2.88
2023-01-11T13:08:03.572Z,2.25
2023-01-11T13:10:41.083Z,0.85
2023-01-11T13:13:15.888Z,1.25
2023-01-11T13:15:53.611Z,3.00
2023-01-11T13:18:29.508Z,2.90
2023-01-11T13:21:03.276Z,2.17
2023-01-11T13:23:40.291Z,2.42
2023-01-11T13:26:18.112Z,0.98
2023-01-11T13:28:50.232Z,2.38
2023-01-11T13:31:19.808Z,1.52
2023-01-11T13:33:53.105Z,0.57
2023-01-11T13:36:28.275Z,0.57
2023-01-11T13:39:02.995Z,2.50
2023-01-11T13:41:46.469Z,2.28
2023-01-11T13:44:23.243Z,1.85
2023-01-11T13:47:00.763Z,4.70
2023-01-11T13:49:52.761Z,1.75
2023-01-11T13:52:26.541Z,1.50
2023-01-11T13:55:11.220Z,1.08
2023-01-11T13:57:48.894Z,1.23
2023-01-11T14:00:23.202Z,3.03
2023-01-11T14:02:56.683Z,1.10
2023-01-11T14:05:25.280Z,0.70
2023-01-11T14:08:08.152Z,1.70
2023-01-11T14:10:48.836Z,3.83
2023-01-11T14:14:04.235Z,2.63
2023-01-11T14:16:40.484Z,1.38
2023-01-11T14:19:21.711Z,2.45
2023-01-11T14:22:09.670Z,1.55
2023-01-11T14:24:42.164Z,3.63
2023-01-11T14:30:42.071Z,3.03
2023-01-11T14:33:32.448Z,3.55
2023-01-11T14:36:29.236Z,2.22
2023-01-11T14:39:52.307Z,3.10
2023-01-11T14:42:51.541Z,2.63
2023-01-11T14:45:43.301Z,1.77
2023-01-11T14:48:27.898Z,2.17
2023-01-11T14:51:23.804Z,3.65
2023-01-11T14:53:58.048Z,4.65
2023-01-11T14:56:50.062Z,2.47
2023-01-11T14:59:35.970Z,3.23
2023-01-11T15:02:26.389Z,3.50
2023-01-11T15:05:38.703Z,9.02
2023-01-11T15:08:31.007Z,9.35
2023-01-11T15:11:00.670Z,2.70
2023-01-11T15:13:34.725Z,6.90
2023-01-11T15:16:27.203Z,2.22
2023-01-11T15:18:57.204Z,3.65
2023-01-11T15:21:28.071Z,5.50
2023-01-11T15:23:58.603Z,4.15
2023-01-11T15:26:28.074Z,4.35
2023-01-11T15:28:58.081Z,6.30
2023-01-11T15:31:34.236Z,7.95
2023-01-11T15:34:17.949Z,4.75
2023-01-11T15:36:56.794Z,5.07
2023-01-11T15:39:34.306Z,5.88
2023-01-11T15:42:31.361Z,4.53
2023-01-11T15:45:33.128Z,2.63
2023-01-11T15:48:19.695Z,5.72
2023-01-11T15:51:21.842Z,7.53
2023-01-11T16:04:00.830Z,13.90
2023-01-11T16:06:41.015Z,9.60
2023-01-11T16:09:37.060Z,2.65
2023-01-11T16:12:20.558Z,9.30
2023-01-11T16:15:26.244Z,8.80
2023-01-11T16:17:55.105Z,6.40
2023-01-11T16:20:28.870Z,6.88
2023-01-11T16:23:01.509Z,10.15
2023-01-11T16:25:32.338Z,10.48
2023-01-11T16:28:01.906Z,6.93
2023-01-11T16:30:30.527Z,6.47
2023-01-11T16:33:22.872Z,7.15
2023-01-11T16:35:50.814Z,4.57
2023-01-11T16:38:23.167Z,10.80
2023-01-11T16:40:54.087Z,8.30
2023-01-11T16:43:25.742Z,6.63
2023-01-11T16:45:55.145Z,6.90
2023-01-11T16:48:24.440Z,9.77
2023-01-11T16:51:02.784Z,14.38
2023-01-11T16:53:34.304Z,8.00
2023-01-11T16:56:06.257Z,8.17
2023-01-11T16:58:35.807Z,8.70
2023-01-11T17:01:06.398Z,8.52
2023-01-11T17:03:37.558Z,4.10
2023-01-11T17:06:29.969Z,6.93
2023-01-11T17:09:00.013Z,7.07
2023-01-11T17:11:32.494Z,8.52
2023-01-11T17:16:48.337Z,5.22
2023-01-11T17:19:19.164Z,8.63
2023-01-11T17:21:49.196Z,11.50
2023-01-11T17:24:23.941Z,6.28
2023-01-11T17:26:54.742Z,10.80
2023-01-11T17:29:28.435Z,8.73
2023-01-11T17:31:57.909Z,13.65
2023-01-11T17:34:35.436Z,8.43
2023-01-11T17:37:10.441Z,6.95
2023-01-11T17:39:47.133Z,11.13
2023-01-11T17:42:34.032Z,11.18
2023-01-11T17:45:14.480Z,5.95
2023-01-11T17:47:46.705Z,11.68
2023-01-11T17:50:25.258Z,11.93
2023-01-11T17:53:01.888Z,8.85
2023-01-11T17:55:31.428Z,4.72
2023-01-11T17:58:19.938Z,8.10
2023-01-11T18:01:11.469Z,9.15
2023-01-11T18:03:44.951Z,13.43
2023-01-11T18:06:15.169Z,8.73
2023-01-11T18:08:48.395Z,7.38
2023-01-11T18:11:27.377Z,10.25
2023-01-11T18:13:58.560Z,6.15
2023-01-11T18:16:27.140Z,6.25
2023-01-11T18:18:57.380Z,5.60
2023-01-11T18:21:51.187Z,6.60
2023-01-11T18:24:43.331Z,9.75
2023-01-11T18:27:28.415Z,4.15
2023-01-11T18:29:58.188Z,10.75
2023-01-11T18:32:27.912Z,5.50
2023-01-11T18:34:56.253Z,11.75
2023-01-11T18:37:24.111Z,7.68
2023-01-11T18:39:53.130Z,8.30
2023-01-11T18:42:28.387Z,16.25
2023-01-11T18:44:56.481Z,15.07
2023-01-11T18:47:26.481Z,11.77
2023-01-11T18:49:55.055Z,15.75
2023-01-11T18:52:27.955Z,7.50
2023-01-11T18:54:56.837Z,12.00
2023-01-11T18:57:28.554Z,9.68
2023-01-11T18:59:56.782Z,10.65
2023-01-11T19:02:28.946Z,8.80
2023-01-11T19:04:58.066Z,7.65
2023-01-11T19:07:27.344Z,14.95
2023-01-11T19:09:59.339Z,8.90
2023-01-11T19:12:28.876Z,9.70
2023-01-11T19:14:58.189Z,6.45
2023-01-11T19:17:28.611Z,15.40
2023-01-11T19:19:56.708Z,9.85
2023-01-11T19:22:27.027Z,10.15
2023-01-11T19:24:55.273Z,10.70
2023-01-11T19:27:28.292Z,5.18
2023-01-11T19:29:59.727Z,6.78
2023-01-11T19:32:27.691Z,13.05
2023-01-11T19:34:58.146Z,9.15
2023-01-11T19:37:27.105Z,6.68
2023-01-11T19:39:55.289Z,11.43
2023-01-11T19:42:23.887Z,7.10
2023-01-11T19:44:52.700Z,7.68
2023-01-11T19:47:22.514Z,10.52
2023-01-11T19:49:56.553Z,6.90
2023-01-11T19:52:26.581Z,6.03
2023-01-11T19:54:55.108Z,5.60
2023-01-11T19:57:23.492Z,12.32
2023-01-11T19:59:52.027Z,9.57
2023-01-11T20:02:23.008Z,6.72
2023-01-11T20:04:54.302Z,8.85
2023-01-11T20:07:22.436Z,7.45
2023-01-11T20:09:50.925Z,5.10
2023-01-11T20:12:21.495Z,11.50
2023-01-11T20:14:49.760Z,10.13
2023-01-11T20:17:22.480Z,8.27
2023-01-11T20:19:54.515Z,8.95
2023-01-11T20:22:23.227Z,7.70
2023-01-11T20:24:51.593Z,11.18
2023-01-11T20:27:19.898Z,9.30
2023-01-11T20:29:47.988Z,6.28
2023-01-11T20:32:39.279Z,12.18
2023-01-11T20:35:11.884Z,12.52
2023-01-11T20:37:40.124Z,7.17
2023-01-11T20:40:11.800Z,5.80
2023-01-11T20:42:40.590Z,13.35
2023-01-11T20:45:14.799Z,8.77
2023-01-11T20:47:42.921Z,7.10
2023-01-11T20:50:12.656Z,6.72
2023-01-11T20:52:40.591Z,10.85
2023-01-11T20:55:10.093Z,5.97
2023-01-11T20:57:38.762Z,12.48
2023-01-11T21:02:37.930Z,7.10
2023-01-11T21:05:10.687Z,9.20
2023-01-11T21:07:40.384Z,11.82
2023-01-11T21:10:12.486Z,14.02
2023-01-11T21:12:42.979Z,9.65
2023-01-11T21:15:14.054Z,23.10
2023-01-11T21:17:42.154Z,18.45
2023-01-11T21:20:11.632Z,13.43
2023-01-11T21:22:41.165Z,12.30
2023-01-11T21:25:10.175Z,13.38
2023-01-11T21:27:38.993Z,9.95
2023-01-11T21:30:08.388Z,9.32
2023-01-11T21:32:36.479Z,13.82
2023-01-11T21:35:04.822Z,14.05
2023-01-11T21:37:33.143Z,8.23
2023-01-11T21:40:02.732Z,8.98
2023-01-11T21:42:33.483Z,10.07
2023-01-11T21:45:01.728Z,11.02
2023-01-11T21:47:29.858Z,12.43
2023-01-11T21:49:58.339Z,12.52
2023-01-11T21:52:26.582Z,9.88
2023-01-11T21:54:54.975Z,13.93
2023-01-11T21:57:27.128Z,14.25
2023-01-11T21:59:56.632Z,12.32
2023-01-11T22:02:24.793Z,6.80
2023-01-11T22:04:57.766Z,9.18
2023-01-11T22:07:32.107Z,10.10
2023-01-11T22:10:10.843Z,14.27
2023-01-11T22:12:40.697Z,14.05
2023-01-11T22:15:14.022Z,15.95
2023-01-11T22:17:42.520Z,12.95
2023-01-11T22:20:17.610Z,9.43
2023-01-11T22:22:46.094Z,15.48
2023-01-11T22:25:17.501Z,13.35
2023-01-11T22:27:47.177Z,10.90
2023-01-11T22:30:15.859Z,9.40
2023-01-11T22:32:44.258Z,12.05
2023-01-11T22:35:14.754Z,11.70
2023-01-11T22:37:42.988Z,7.95
2023-01-11T22:40:12.239Z,14.77
2023-01-11T22:42:40.203Z,9.27
2023-01-11T22:45:11.516Z,15.00
2023-01-11T22:47:41.514Z,10.50
2023-01-11T22:50:10.891Z,8.27
2023-01-11T22:52:39.948Z,5.95
2023-01-11T22:55:10.039Z,10.20
2023-01-11T22:57:38.223Z,8.45
2023-01-11T23:00:12.517Z,6.82
2023-01-11T23:02:40.631Z,10.88
2023-01-11T23:05:09.094Z,11.45
2023-01-11T23:07:37.181Z,14.70
2023-01-11T23:10:08.662Z,12.02
2023-01-11T23:12:54.033Z,10.90
2023-01-11T23:15:23.669Z,13.77
2023-01-11T23:17:51.873Z,6.40
2023-01-11T23:20:19.982Z,11.15
2023-01-11T23:22:51.110Z,5.05
2023-01-11T23:25:19.347Z,6.05
2023-01-11T23:27:47.337Z,12.77
2023-01-11T23:30:15.632Z,5.57
2023-01-11T23:32:44.937Z,6.38
2023-01-11T23:35:12.861Z,10.10
2023-01-11T23:37:40.708Z,4.20
2023-01-11T23:40:10.280Z,6.20
2023-01-11T23:42:38.447Z,9.75
2023-01-11T23:45:07.422Z,10.45
2023-01-11T23:47:34.279Z,10.20
2023-01-11T23:50:03.792Z,6.72
2023-01-11T23:52:33.489Z,11.68
2023-01-11T23:55:01.645Z,7.50
2023-01-11T23:57:29.554Z,12.52
2023-01-11T23:59:57.631Z,8.77
